Time;durP1;ratioP1;P1;durP2;ratioP2;P2;SDS_P1;SDS_P2;PMS_P1;PMS_P2;Temp;Humidity;BMP_temperature;BMP_pressure;BME280_temperature;BME280_humidity;BME280_pressure;Samples;Min_cycle;Max_cycle;Signal;HPM_P1;HPM_P2
2021/05/15 11:14:28;;;;;;;0.47;0.43;;;;;;;17.22;42.11;98059.72;5114546;27;20121;-79
2021/05/15 11:17:10;;;;;;;1.38;0.60;;;;;;;17.09;42.76;98060.97;5110663;28;20659;-76
2021/05/15 11:19:37;;;;;;;1.40;0.57;;;;;;;16.75;43.33;98058.25;5124928;28;20089;-77
2021/05/15 11:22:04;;;;;;;3.30;0.40;;;;;;;16.59;43.61;98058.03;5121790;28;20055;-78
2021/05/15 11:24:32;;;;;;;0.93;0.50;;;;;;;16.64;43.64;98055.34;5119876;28;20513;-77
2021/05/15 11:27:09;;;;;;;0.80;0.50;;;;;;;16.41;45.63;98053.63;5123322;28;20502;-77
2021/05/15 11:29:37;;;;;;;3.03;0.70;;;;;;;15.71;48.30;98061.16;5117535;28;20100;-77
2021/05/15 11:32:08;;;;;;;6.75;0.93;;;;;;;15.36;53.79;98075.00;5128841;28;20100;-78
2021/05/15 11:34:35;;;;;;;5.25;1.00;;;;;;;14.84;60.25;98064.84;5120329;28;20121;-78
2021/05/15 11:37:01;;;;;;;5.88;1.00;;;;;;;14.95;63.61;98071.38;5113714;28;20051;-78
2021/05/15 11:39:28;;;;;;;3.75;1.10;;;;;;;15.03;66.08;98065.53;5127984;28;20150;-78
2021/05/15 11:42:05;;;;;;;1.20;1.10;;;;;;;15.45;64.46;98059.84;5129252;28;20047;-79
2021/05/15 11:44:31;;;;;;;6.13;1.98;;;;;;;15.69;63.29;98067.97;5125917;28;20043;-78
2021/05/15 11:47:00;;;;;;;2.72;1.20;;;;;;;16.17;56.98;98058.44;5126397;28;20136;-78
2021/05/15 11:49:28;;;;;;;3.33;1.48;;;;;;;16.45;56.03;98053.94;5108879;28;20398;-78
2021/05/15 11:52:02;;;;;;;2.10;0.85;;;;;;;16.61;53.74;98049.53;5125199;28;20051;-78
2021/05/15 11:54:28;;;;;;;0.98;0.70;;;;;;;16.41;58.47;98045.41;5128592;28;20051;-78
2021/05/15 11:56:57;;;;;;;7.28;0.88;;;;;;;16.32;60.13;98052.38;5114199;28;20044;-78
2021/05/15 11:59:24;;;;;;;1.98;1.30;;;;;;;16.50;57.85;98058.69;5122621;28;20069;-78
2021/05/15 12:01:51;;;;;;;2.63;1.30;;;;;;;15.96;58.15;98051.78;5129476;28;20047;-77
2021/05/15 12:04:25;;;;;;;2.92;1.27;;;;;;;15.83;56.37;98052.91;5127092;28;20040;-77
2021/05/15 12:06:53;;;;;;;0.90;0.60;;;;;;;16.03;51.86;98044.25;5087977;28;20044;-77
2021/05/15 12:09:21;;;;;;;4.25;1.58;;;;;;;16.11;53.86;98034.78;5124611;28;20497;-77
2021/05/15 12:11:48;;;;;;;3.28;2.58;;;;;;;16.86;53.11;98024.38;5095170;28;20048;-77
2021/05/15 12:14:23;;;;;;;1.48;1.15;;;;;;;17.40;52.45;98014.63;5107418;28;20059;-78
2021/05/15 12:16:50;;;;;;;2.10;1.20;;;;;;;17.34;47.53;98010.97;5108908;28;20532;-77
2021/05/15 12:19:22;;;;;;;2.25;1.02;;;;;;;17.61;47.44;97999.19;5107512;28;20077;-77
2021/05/15 12:22:00;;;;;;;1.38;0.60;;;;;;;17.65;47.96;98008.59;5116026;28;20047;-77
2021/05/15 12:24:35;;;;;;;4.88;0.80;;;;;;;17.53;46.44;97992.25;5100182;28;20195;-77
2021/05/15 12:27:13;;;;;;;10.38;0.80;;;;;;;17.27;46.48;97994.72;5093963;28;20052;-78
2021/05/15 12:29:40;;;;;;;1.85;0.70;;;;;;;16.95;43.37;97969.88;5074159;28;20049;-78
2021/05/15 12:32:07;;;;;;;1.65;0.60;;;;;;;17.32;47.03;97970.03;5088403;28;20059;-77
2021/05/15 12:34:35;;;;;;;1.77;0.90;;;;;;;17.25;44.73;97977.69;5093432;28;20097;-77
2021/05/15 12:37:12;;;;;;;0.52;0.52;;;;;;;17.63;45.04;97981.38;5096014;28;20044;-77
2021/05/15 12:39:38;;;;;;;1.77;0.75;;;;;;;17.43;45.11;97972.91;5102316;28;20055;-77
2021/05/15 12:42:05;;;;;;;3.40;0.80;;;;;;;17.54;42.83;97971.09;5103785;28;20125;-77
2021/05/15 12:44:39;;;;;;;2.53;0.73;;;;;;;17.13;42.99;97976.97;5101868;28;20108;-77
2021/05/15 12:47:05;;;;;;;1.25;0.60;;;;;;;17.06;43.72;97976.34;5109853;28;20047;-77
2021/05/15 12:49:37;;;;;;;2.17;0.80;;;;;;;17.19;44.16;97964.13;5113409;28;20055;-77
2021/05/15 12:52:20;;;;;;;2.78;0.65;;;;;;;16.99;42.53;97957.31;5096483;28;20051;-77
2021/05/15 12:54:47;;;;;;;0.85;0.73;;;;;;;17.11;43.62;97947.00;5109625;28;20052;-77
2021/05/15 12:57:13;;;;;;;1.95;0.80;;;;;;;17.21;45.32;97956.44;5110056;28;20047;-78
2021/05/15 12:59:42;;;;;;;1.92;0.65;;;;;;;17.30;42.76;97946.69;5112947;28;20059;-77
2021/05/15 13:02:13;;;;;;;1.60;0.88;;;;;;;17.08;42.15;97942.03;5094961;28;20542;-77
2021/05/15 13:04:44;;;;;;;0.82;0.70;;;;;;;16.78;40.92;97942.47;5099229;28;20056;-77
2021/05/15 13:07:11;;;;;;;;;;;;;;;16.98;41.79;97941.91;5112484;28;20051;-77
2021/05/15 13:09:42;;;;;;;3.40;1.10;;;;;;;17.05;45.07;97941.72;5113598;28;19920;-77
2021/05/15 13:12:09;;;;;;;2.15;1.00;;;;;;;17.09;43.30;97937.41;5106727;28;20059;-77
2021/05/15 13:14:35;;;;;;;3.15;1.10;;;;;;;17.09;41.96;97938.22;5103398;28;20051;-77
2021/05/15 13:17:01;;;;;;;1.85;1.10;;;;;;;16.69;42.39;97924.78;5095215;28;20055;-77
2021/05/15 13:19:27;;;;;;;2.25;0.60;;;;;;;16.63;41.51;97941.22;5108507;28;20047;-77
2021/05/15 13:21:54;;;;;;;0.88;0.80;;;;;;;16.58;42.89;97949.34;5113215;28;20434;-77
2021/05/15 13:24:20;;;;;;;4.88;1.45;;;;;;;16.69;43.90;97947.56;5107096;28;20052;-77
2021/05/15 13:26:48;;;;;;;3.63;0.98;;;;;;;16.44;45.65;97937.09;5093359;28;20047;-77
2021/05/15 13:29:15;;;;;;;7.22;2.92;;;;;;;16.58;47.74;97943.03;5097594;28;20067;-77
2021/05/15 13:31:41;;;;;;;4.45;1.10;;;;;;;16.48;45.39;97934.69;5100781;28;20479;-77
2021/05/15 13:34:07;;;;;;;3.00;1.10;;;;;;;16.56;45.25;97935.06;5096594;28;20047;-77
2021/05/15 13:36:33;;;;;;;3.60;1.58;;;;;;;16.53;44.10;97934.72;5108483;28;20044;-78
2021/05/15 13:39:00;;;;;;;2.05;0.95;;;;;;;16.55;43.83;97916.13;5095292;28;20051;-78
2021/05/15 13:41:27;;;;;;;6.32;2.00;;;;;;;16.44;44.34;97915.16;5112467;28;20466;-78
2021/05/15 13:43:53;;;;;;;3.42;1.13;;;;;;;16.35;43.31;97913.91;5109545;28;20425;-78
2021/05/15 13:46:19;;;;;;;2.65;0.88;;;;;;;16.26;43.12;97930.00;5099740;28;20040;-79
2021/05/15 13:48:46;;;;;;;3.35;1.38;;;;;;;16.25;46.50;97920.09;5107456;28;20263;-78
2021/05/15 13:51:13;;;;;;;4.43;1.05;;;;;;;15.91;45.28;97912.75;5105147;28;20710;-79
2021/05/15 13:53:40;;;;;;;2.00;0.93;;;;;;;15.79;45.85;97924.88;5095809;28;20043;-78
2021/05/15 13:56:08;;;;;;;3.47;0.90;;;;;;;15.71;46.63;97902.25;5095897;28;20056;-79
2021/05/15 13:58:34;;;;;;;1.58;0.63;;;;;;;15.65;50.01;97908.72;5104556;28;20433;-79
2021/05/15 14:01:01;;;;;;;1.48;1.10;;;;;;;15.55;51.13;97914.88;5094900;28;20044;-79
2021/05/15 14:03:27;;;;;;;3.00;1.10;;;;;;;15.53;53.87;97916.19;5097719;28;20044;-78
2021/05/15 14:05:54;;;;;;;3.67;0.90;;;;;;;15.42;52.64;97908.88;5108621;28;20063;-79
2021/05/15 14:08:20;;;;;;;4.18;0.90;;;;;;;15.38;52.64;97901.13;5102351;28;20095;-78
2021/05/15 14:10:48;;;;;;;3.03;1.00;;;;;;;15.28;57.15;97917.41;5103121;28;20040;-79
2021/05/15 14:13:15;;;;;;;2.42;0.88;;;;;;;15.28;53.56;97900.97;5091519;28;20047;-79
2021/05/15 14:15:42;;;;;;;3.83;0.90;;;;;;;15.26;53.53;97916.81;5096824;28;20157;-79
2021/05/15 14:18:08;;;;;;;1.42;0.95;;;;;;;15.14;50.82;97907.81;5111065;28;20461;-79
2021/05/15 14:20:35;;;;;;;1.63;1.00;;;;;;;15.14;52.20;97897.69;5092477;28;20051;-79
2021/05/15 14:23:02;;;;;;;13.48;6.13;;;;;;;15.17;52.79;97908.16;5106586;28;20410;-79
2021/05/15 14:25:28;;;;;;;9.43;5.10;;;;;;;15.29;53.80;97890.84;5101218;28;20043;-79
2021/05/15 14:27:54;;;;;;;8.98;6.07;;;;;;;15.29;49.91;97893.59;5097517;28;20062;-79
2021/05/15 14:30:23;;;;;;;4.03;2.17;;;;;;;15.24;48.38;97885.31;5110082;28;20048;-80
2021/05/15 14:32:50;;;;;;;6.85;3.17;;;;;;;15.50;50.65;97892.03;5097149;28;20052;-79
2021/05/15 14:35:16;;;;;;;5.40;3.35;;;;;;;15.66;46.83;97876.69;5091441;28;20482;-80
2021/05/15 14:37:42;;;;;;;4.63;2.63;;;;;;;15.78;47.53;97880.22;5099824;28;20139;-78
2021/05/15 14:40:09;;;;;;;3.13;2.65;;;;;;;16.07;49.77;97885.56;5110483;28;20043;-79
2021/05/15 14:42:36;;;;;;;9.15;5.40;;;;;;;16.07;46.26;97864.47;5101506;28;20427;-78
2021/05/15 14:45:08;;;;;;;13.88;6.72;;;;;;;16.19;46.89;97863.53;5091350;28;20052;-79
2021/05/15 14:47:35;;;;;;;6.63;2.17;;;;;;;16.20;48.59;97854.19;5101717;28;20060;-80
2021/05/15 14:50:04;;;;;;;5.57;1.70;;;;;;;15.98;46.30;97863.22;5101651;28;20441;-79
2021/05/15 14:52:31;;;;;;;3.40;1.73;;;;;;;15.85;46.98;97858.09;5099628;28;20043;-80
2021/05/15 14:54:57;;;;;;;5.88;3.47;;;;;;;16.11;50.39;97864.78;5104321;28;20056;-80
2021/05/15 14:57:24;;;;;;;5.45;1.25;;;;;;;15.96;48.95;97848.97;5103704;28;20036;-78
2021/05/15 14:59:50;;;;;;;3.33;1.35;;;;;;;16.10;49.60;97865.88;5101413;28;20108;-79
2021/05/15 15:02:17;;;;;;;7.07;1.70;;;;;;;15.96;47.10;97853.59;5098567;28;20039;-79
2021/05/15 15:04:45;;;;;;;5.32;1.20;;;;;;;16.12;49.33;97862.88;5098742;28;20043;-79
2021/05/15 15:07:11;;;;;;;4.47;1.00;;;;;;;15.83;48.16;97844.66;5108631;28;20047;-80
2021/05/15 15:13:08;;;;;;;9.15;2.33;;;;;;;15.69;46.45;97835.09;5076043;28;20055;-79
2021/05/15 15:19:07;;;;;;;2.72;1.38;;;;;;;15.58;46.78;97851.38;5059499;28;20402;-79
2021/05/15 15:21:35;;;;;;;2.05;1.13;;;;;;;15.37;46.82;97836.53;5092856;28;20070;-79
2021/05/15 15:24:01;;;;;;;3.03;1.20;;;;;;;15.33;46.95;97850.97;5090927;28;20052;-79
2021/05/15 15:26:30;;;;;;;1.48;1.13;;;;;;;15.43;47.49;97864.81;5105060;28;20043;-80
2021/05/15 15:28:56;;;;;;;5.57;1.02;;;;;;;15.22;46.03;97860.91;5098629;28;20387;-79
2021/05/15 15:31:23;;;;;;;3.28;1.38;;;;;;;15.04;46.98;97854.56;5098199;28;20461;-79
2021/05/15 15:33:49;;;;;;;2.30;0.82;;;;;;;14.98;48.51;97850.06;5090772;28;20048;-79
2021/05/15 15:36:15;;;;;;;4.75;1.20;;;;;;;14.90;46.48;97857.84;5093568;28;20113;-80
2021/05/15 15:38:50;;;;;;;4.72;1.98;;;;;;;14.77;46.59;97851.59;5091001;28;20052;-79
2021/05/15 15:41:17;;;;;;;4.13;1.45;;;;;;;14.85;46.22;97850.38;5095838;28;20048;-80
2021/05/15 15:43:43;;;;;;;5.00;1.48;;;;;;;14.74;46.26;97843.88;5097811;28;20048;-80
2021/05/15 15:47:10;;;;;;;1.90;1.00;;;;;;;14.56;47.42;97838.53;5096219;28;20498;-79
2021/05/15 15:49:37;;;;;;;3.35;1.10;;;;;;;14.71;48.13;97838.06;5092234;28;20067;-79
2021/05/15 15:52:04;;;;;;;0.80;0.80;;;;;;;14.84;46.77;97843.22;5110536;28;20054;-79
2021/05/15 15:54:32;;;;;;;7.72;1.25;;;;;;;14.78;46.62;97831.34;5089733;28;20044;-79
2021/05/15 15:56:59;;;;;;;3.00;1.00;;;;;;;14.84;47.46;97848.69;5090742;28;20052;-79
2021/05/15 15:59:26;;;;;;;3.50;1.20;;;;;;;14.83;46.93;97849.81;5096640;28;20396;-79
2021/05/15 16:01:52;;;;;;;4.53;1.30;;;;;;;14.79;47.46;97815.78;5093383;28;20051;-79
2021/05/15 16:04:18;;;;;;;3.08;1.17;;;;;;;14.97;48.00;97839.38;5102329;28;20059;-79
2021/05/15 16:06:45;;;;;;;3.83;1.30;;;;;;;14.96;48.00;97827.59;5076066;28;20106;-79
2021/05/15 16:09:11;;;;;;;5.07;2.10;;;;;;;14.98;47.84;97833.66;5109360;28;20055;-79
2021/05/15 16:11:40;;;;;;;4.35;1.67;;;;;;;15.03;48.40;97833.75;5102904;28;20403;-80
2021/05/15 16:14:06;;;;;;;5.07;1.38;;;;;;;15.11;49.15;97832.50;5093646;28;20048;-79
2021/05/15 16:16:33;;;;;;;6.32;3.15;;;;;;;15.02;47.62;97834.84;5100907;28;20047;-79
2021/05/15 16:19:00;;;;;;;5.20;1.63;;;;;;;15.07;48.04;97842.31;5101676;28;20411;-79
2021/05/15 16:21:27;;;;;;;2.78;1.15;;;;;;;15.07;48.48;97839.56;5103873;28;20494;-79
2021/05/15 16:23:53;;;;;;;2.28;0.90;;;;;;;14.74;50.89;97834.81;5106306;28;20048;-79
2021/05/15 16:26:19;;;;;;;1.60;0.73;;;;;;;14.39;53.22;97833.88;5074156;28;20044;-79
2021/05/15 16:28:47;;;;;;;0.88;0.70;;;;;;;14.11;54.08;97851.88;5100246;28;20391;-79
2021/05/15 16:31:13;;;;;;;2.28;1.15;;;;;;;14.01;55.46;97850.81;5093570;28;20052;-79
2021/05/15 16:33:39;;;;;;;0.70;0.57;;;;;;;14.02;56.14;97852.47;5093360;28;20040;-80
2021/05/15 16:36:06;;;;;;;1.92;0.93;;;;;;;13.99;56.27;97865.53;5091993;28;20044;-79
2021/05/15 16:38:32;;;;;;;5.53;0.80;;;;;;;13.78;56.58;97853.31;5094446;28;20491;-79
2021/05/15 16:40:59;;;;;;;0.93;0.90;;;;;;;13.69;57.43;97860.19;5097805;28;20040;-79
2021/05/15 16:43:26;;;;;;;1.02;0.98;;;;;;;13.60;58.23;97856.16;5096291;28;20479;-79
2021/05/15 16:46:11;;;;;;;1.42;0.88;;;;;;;13.68;59.41;97874.09;5105933;28;20057;-79
2021/05/15 16:48:38;;;;;;;3.38;0.80;;;;;;;13.57;59.19;97879.31;5093195;28;20281;-79
2021/05/15 16:51:07;;;;;;;1.27;1.00;;;;;;;13.58;57.93;97861.03;5093433;28;20055;-79
2021/05/15 16:53:45;;;;;;;6.13;1.17;;;;;;;13.56;58.34;97868.63;5093607;28;20486;-79
2021/05/15 16:56:15;;;;;;;2.33;1.02;;;;;;;13.53;57.94;97863.63;5097784;28;20078;-79
2021/05/15 16:59:00;;;;;;;;;;;;;;;13.42;58.27;97868.00;5093767;28;20430;-80
2021/05/15 17:01:30;;;;;;;3.92;1.02;;;;;;;13.22;58.13;97857.41;5099482;28;19920;-79
2021/05/15 17:06:46;;;;;;;1.77;0.80;;;;;;;13.39;58.37;97861.13;5105776;28;20003;-80
2021/05/15 17:09:16;;;;;;;4.28;0.93;;;;;;;13.38;58.46;97853.16;5093187;28;20044;-79
2021/05/15 17:11:49;;;;;;;3.15;0.70;;;;;;;13.15;57.56;97879.31;5108106;28;20059;-80
2021/05/15 17:14:19;;;;;;;1.27;0.95;;;;;;;13.01;58.64;97878.69;5112392;28;20048;-80
2021/05/15 17:16:54;;;;;;;1.50;0.82;;;;;;;12.90;58.44;97884.91;5111954;28;20071;-80
2021/05/15 17:19:20;;;;;;;3.33;0.90;;;;;;;12.70;58.82;97871.56;5098558;28;20052;-79
2021/05/15 17:21:51;;;;;;;1.20;0.70;;;;;;;12.84;59.48;97886.69;5093576;28;20052;-80
2021/05/15 17:24:21;;;;;;;1.65;0.80;;;;;;;12.80;59.47;97877.31;5106569;28;20117;-80
2021/05/15 17:26:49;;;;;;;2.20;0.98;;;;;;;12.90;60.58;97880.31;5111584;28;20070;-80
2021/05/15 17:29:49;;;;;;;1.50;0.63;;;;;;;12.73;61.39;97880.09;5113015;28;20554;-80
2021/05/15 17:32:22;;;;;;;2.45;0.75;;;;;;;12.79;62.39;97869.34;5050821;28;20063;-79
2021/05/15 17:34:49;;;;;;;1.58;0.77;;;;;;;12.71;62.50;97862.31;5080008;28;20461;-80
2021/05/15 17:37:15;;;;;;;1.73;0.60;;;;;;;12.75;63.75;97891.63;5111083;28;20052;-80
2021/05/15 17:47:51;;;;;;;1.80;0.80;;;;;;;12.56;64.60;97866.28;1394222;26;20059;-79
2021/05/15 17:50:25;;;;;;;1.05;0.80;;;;;;;12.57;64.84;97869.84;5050708;28;20057;-80
2021/05/15 17:52:52;;;;;;;1.98;1.05;;;;;;;12.27;65.49;97854.28;5051785;28;20045;-80
2021/05/15 17:55:27;;;;;;;3.47;1.50;;;;;;;12.42;65.56;97855.78;5038224;28;20124;-78
2021/05/15 17:58:03;;;;;;;2.88;0.80;;;;;;;12.42;64.79;97862.06;5038631;28;20052;-79
2021/05/15 18:00:29;;;;;;;7.07;1.20;;;;;;;12.45;64.79;97849.84;5037159;28;20481;-79
2021/05/15 18:05:44;;;;;;;1.40;0.70;;;;;;;12.32;63.66;97873.50;5042314;28;20523;-79
2021/05/15 18:08:14;;;;;;;1.07;0.50;;;;;;;12.29;63.88;97875.84;5047725;28;20484;-79
2021/05/15 18:10:44;;;;;;;;;;;;;;;12.38;64.52;97882.66;5034765;28;20337;-79
2021/05/15 18:13:15;;;;;;;0.40;0.40;;;;;;;12.45;63.72;97888.00;5042065;28;19928;-80
2021/05/15 18:15:41;;;;;;;1.13;0.80;;;;;;;12.25;63.69;97880.91;5049655;28;20052;-80
2021/05/15 18:18:09;;;;;;;0.57;0.57;;;;;;;12.17;64.31;97894.84;5043800;28;20106;-79
2021/05/15 18:23:16;;;;;;;0.55;0.55;;;;;;;12.09;64.29;97900.56;5044280;28;20526;-79
2021/05/15 18:25:43;;;;;;;1.38;0.55;;;;;;;11.99;64.27;97879.31;5049391;28;20077;-80
2021/05/15 18:28:12;;;;;;;0.95;0.70;;;;;;;12.07;63.64;97899.97;5038171;28;20658;-80
2021/05/15 18:30:38;;;;;;;3.00;0.73;;;;;;;11.96;64.14;97901.56;5033365;28;20053;-80
2021/05/15 18:33:11;;;;;;;0.50;0.50;;;;;;;11.89;64.03;97879.78;5041004;28;20056;-81
2021/05/15 18:35:38;;;;;;;1.63;0.80;;;;;;;11.84;64.65;97896.81;5036498;28;20131;-79
2021/05/15 18:38:09;;;;;;;0.85;0.55;;;;;;;11.81;64.11;97902.69;5039717;28;20057;-80
2021/05/15 18:40:36;;;;;;;1.05;0.55;;;;;;;11.65;65.48;97901.41;5041111;28;20076;-80
2021/05/15 18:43:03;;;;;;;0.80;0.80;;;;;;;11.62;64.61;97895.53;5044854;28;20053;-79
2021/05/15 18:45:35;;;;;;;0.55;0.55;;;;;;;11.55;64.88;97897.47;5032392;28;20496;-80
2021/05/15 18:48:04;;;;;;;0.68;0.68;;;;;;;11.55;65.21;97894.75;5031795;28;20567;-80
2021/05/15 18:50:40;;;;;;;1.02;0.80;;;;;;;11.57;65.51;97914.44;5040578;28;20044;-80
2021/05/15 18:53:11;;;;;;;4.18;0.60;;;;;;;11.39;66.26;97893.44;5049695;28;20477;-80
2021/05/15 18:55:37;;;;;;;0.88;0.57;;;;;;;11.45;65.61;97917.03;5035426;28;20053;-80
2021/05/15 18:58:04;;;;;;;0.70;0.50;;;;;;;11.31;66.24;97900.81;5043133;28;20064;-80
2021/05/15 19:00:30;;;;;;;0.77;0.60;;;;;;;11.37;66.24;97914.59;5037207;28;20095;-80
2021/05/15 19:02:59;;;;;;;0.43;0.32;;;;;;;11.30;66.42;97914.63;5041259;28;20508;-80
2021/05/15 19:05:25;;;;;;;0.98;0.65;;;;;;;11.22;66.41;97904.84;5050614;28;20053;-79
2021/05/15 19:07:52;;;;;;;0.60;0.60;;;;;;;11.19;66.61;97909.91;5044936;28;20045;-80
2021/05/15 19:10:19;;;;;;;0.45;0.45;;;;;;;11.18;66.77;97900.91;5049559;28;20056;-79
2021/05/15 19:12:45;;;;;;;2.47;0.50;;;;;;;11.18;67.18;97910.97;5043679;28;20045;-79
2021/05/15 19:15:12;;;;;;;0.95;0.57;;;;;;;11.12;67.07;97912.66;5046218;28;20049;-79
2021/05/15 19:17:39;;;;;;;0.93;0.77;;;;;;;11.10;67.47;97912.06;5043701;28;20189;-80
2021/05/15 19:20:07;;;;;;;1.77;0.63;;;;;;;11.01;67.73;97905.22;5044739;28;20190;-79
2021/05/15 19:22:35;;;;;;;0.70;0.40;;;;;;;10.95;67.95;97905.03;5046742;28;20045;-79
2021/05/15 19:25:03;;;;;;;0.82;0.50;;;;;;;11.06;67.63;97919.81;5032397;28;20053;-79
2021/05/15 19:27:30;;;;;;;0.70;0.70;;;;;;;11.03;67.51;97928.41;5033654;28;20107;-80
2021/05/15 19:29:56;;;;;;;0.65;0.45;;;;;;;10.95;67.72;97934.94;5049684;28;20048;-80
2021/05/15 19:32:22;;;;;;;3.80;0.60;;;;;;;10.92;67.69;97920.94;5049972;28;20042;-79
2021/05/15 19:34:49;;;;;;;0.40;0.40;;;;;;;10.95;68.07;97934.94;5038350;28;20060;-79
2021/05/15 19:37:15;;;;;;;0.50;0.50;;;;;;;10.94;67.93;97937.88;5050879;28;20056;-80
2021/05/15 19:39:41;;;;;;;0.77;0.47;;;;;;;10.89;67.61;97927.66;5044717;28;20052;-80
2021/05/15 19:42:10;;;;;;;1.20;0.50;;;;;;;10.89;67.74;97935.81;5034340;28;20065;-80
2021/05/15 19:44:40;;;;;;;2.05;0.73;;;;;;;10.94;68.25;97946.03;5034215;28;20046;-80
2021/05/15 19:47:08;;;;;;;0.75;0.57;;;;;;;10.88;68.24;97944.19;5052873;28;20052;-80
2021/05/15 19:49:35;;;;;;;0.57;0.50;;;;;;;10.97;68.05;97948.31;5031049;28;20405;-78
2021/05/15 19:52:03;;;;;;;0.50;0.50;;;;;;;11.03;67.90;97947.44;5033778;28;20493;-79
2021/05/15 19:54:32;;;;;;;0.65;0.50;;;;;;;11.04;67.45;97942.84;5044981;28;20467;-79
2021/05/15 19:57:01;;;;;;;1.02;0.60;;;;;;;11.11;67.74;97933.59;5023486;28;20615;-79
2021/05/15 19:59:36;;;;;;;0.40;0.40;;;;;;;10.89;68.19;97924.94;5047291;28;20053;-79
2021/05/15 20:02:02;;;;;;;1.23;0.57;;;;;;;11.00;68.36;97937.00;5052205;28;20452;-79
2021/05/15 20:04:29;;;;;;;0.88;0.50;;;;;;;10.93;67.52;97942.50;5041651;28;20053;-80
2021/05/15 20:06:58;;;;;;;3.72;0.50;;;;;;;10.86;68.08;97928.09;5043591;28;20499;-79
2021/05/15 20:09:25;;;;;;;2.47;0.40;;;;;;;10.91;68.04;97941.03;5044867;28;20049;-79
2021/05/15 20:11:51;;;;;;;0.32;0.32;;;;;;;10.79;67.64;97928.13;5042233;28;20545;-79
2021/05/15 20:14:17;;;;;;;0.55;0.50;;;;;;;10.82;68.07;97931.47;5054353;28;20052;-79
2021/05/15 20:16:45;;;;;;;1.35;0.57;;;;;;;10.96;68.06;97949.38;5054365;28;20045;-79
2021/05/15 20:19:16;;;;;;;0.55;0.50;;;;;;;10.84;67.97;97927.47;5034026;28;20487;-80
2021/05/15 20:21:57;;;;;;;1.08;0.70;;;;;;;11.01;68.21;97965.88;5016187;28;20053;-80
2021/05/15 20:24:43;;;;;;;2.30;0.60;;;;;;;11.03;67.28;97960.22;5042887;28;20107;-79
2021/05/15 20:30:16;;;;;;;0.68;0.50;;;;;;;11.01;67.89;97965.03;5036208;28;20045;-80
2021/05/15 20:33:37;;;;;;;0.88;0.77;;;;;;;11.04;69.33;97964.63;5035752;28;20152;-79
2021/05/15 20:36:12;;;;;;;1.85;1.00;;;;;;;10.65;71.81;97942.81;5021665;28;20060;-79
2021/05/15 20:51:22;;;;;;;3.70;1.65;;;;;;;10.47;74.86;97959.00;5017299;28;20073;-79
2021/05/15 20:57:37;;;;;;;3.53;1.33;;;;;;;10.44;73.72;97955.63;5029142;28;20110;-80
2021/05/15 21:04:34;;;;;;;2.65;0.93;;;;;;;10.48;74.98;97982.38;5028810;28;20514;-81
2021/05/15 21:07:00;;;;;;;3.35;0.90;;;;;;;10.21;76.19;97975.09;5027213;28;20650;-79
2021/05/15 21:09:26;;;;;;;2.10;0.82;;;;;;;10.18;76.08;97974.69;5036745;28;20057;-79
2021/05/15 21:11:53;;;;;;;0.73;0.68;;;;;;;10.10;76.79;97984.72;5050668;28;20489;-80
2021/05/15 21:14:19;;;;;;;1.58;0.47;;;;;;;9.96;76.91;97982.25;5043008;28;20077;-80
2021/05/15 21:16:45;;;;;;;0.77;0.40;;;;;;;9.93;76.78;97972.63;5036653;28;20283;-80
2021/05/15 21:19:12;;;;;;;1.98;0.60;;;;;;;10.01;76.81;97982.44;5049027;28;20049;-80
2021/05/15 21:21:39;;;;;;;0.70;0.57;;;;;;;9.98;76.46;97977.41;5035798;28;20049;-80
2021/05/15 21:24:06;;;;;;;3.70;0.60;;;;;;;10.04;74.61;97988.28;5038280;28;20050;-80
2021/05/15 21:26:32;;;;;;;0.88;0.70;;;;;;;10.05;73.95;97986.41;5043467;28;20527;-80
2021/05/15 21:28:58;;;;;;;3.30;0.98;;;;;;;10.07;72.58;97992.44;5018724;28;20060;-79
2021/05/15 21:31:25;;;;;;;1.23;0.80;;;;;;;10.03;72.06;98000.19;5054034;28;20079;-80
2021/05/15 21:33:52;;;;;;;1.55;0.50;;;;;;;10.08;71.84;97994.13;5053628;28;20052;-80
2021/05/15 21:36:19;;;;;;;2.40;0.80;;;;;;;10.05;72.04;97980.97;5035273;28;20061;-80
2021/05/15 21:38:45;;;;;;;1.73;0.60;;;;;;;10.01;71.59;97994.16;5044057;28;20053;-79
2021/05/15 21:41:12;;;;;;;1.17;0.77;;;;;;;10.00;72.19;97991.63;5021060;28;20058;-79
2021/05/15 21:43:38;;;;;;;3.70;0.70;;;;;;;9.94;71.38;97990.59;5023622;28;20053;-79
2021/05/15 21:46:04;;;;;;;0.90;0.60;;;;;;;9.88;71.89;97983.28;5043772;28;20447;-79
2021/05/15 21:48:32;;;;;;;1.83;0.73;;;;;;;9.73;72.28;97986.22;5034751;28;20460;-79
2021/05/15 21:51:00;;;;;;;1.25;0.60;;;;;;;9.67;72.67;97998.72;5031291;28;20485;-79
2021/05/15 21:53:27;;;;;;;1.02;0.65;;;;;;;9.59;73.14;97998.09;5028395;28;20041;-79
2021/05/15 21:55:53;;;;;;;3.35;0.60;;;;;;;9.49;72.96;98001.22;5033977;28;20056;-79
2021/05/15 21:58:20;;;;;;;1.42;0.80;;;;;;;9.43;73.09;97991.19;5032677;28;20057;-79
2021/05/15 22:00:49;;;;;;;1.55;0.55;;;;;;;9.46;73.83;97999.75;5014536;28;20646;-79
2021/05/15 22:03:23;;;;;;;1.73;0.82;;;;;;;9.36;73.22;97994.75;5014836;28;20049;-79
2021/05/15 22:05:50;;;;;;;1.02;0.60;;;;;;;9.35;73.32;97995.78;5015317;28;20056;-80
2021/05/15 22:08:19;;;;;;;2.03;0.82;;;;;;;9.38;73.37;98005.38;5032254;28;20045;-79
2021/05/15 22:10:48;;;;;;;2.05;0.90;;;;;;;9.24;73.39;98001.78;5042178;28;20454;-79
2021/05/15 22:13:14;;;;;;;1.73;0.73;;;;;;;9.14;74.36;98002.19;5053329;28;20049;-78
2021/05/15 22:15:41;;;;;;;2.45;0.65;;;;;;;9.08;74.22;97994.88;5035579;28;20053;-79
2021/05/15 22:18:08;;;;;;;1.88;0.63;;;;;;;8.87;74.84;97990.41;5020070;28;20455;-78
2021/05/15 22:20:38;;;;;;;0.77;0.70;;;;;;;8.86;75.00;98010.41;5016057;28;20124;-79
2021/05/15 22:23:04;;;;;;;2.50;0.68;;;;;;;8.79;75.48;98012.25;5024724;28;20412;-78
2021/05/15 22:25:31;;;;;;;1.15;0.73;;;;;;;8.73;76.04;98016.63;5035141;28;20061;-79
2021/05/15 22:27:58;;;;;;;4.28;0.90;;;;;;;8.70;75.84;97995.34;5027711;28;20104;-79
2021/05/15 22:30:25;;;;;;;0.65;0.60;;;;;;;8.66;76.13;98002.22;5024475;28;20073;-79
2021/05/15 22:32:57;;;;;;;2.28;1.00;;;;;;;8.74;75.48;98003.91;5033450;28;20049;-79
2021/05/15 22:35:23;;;;;;;3.85;1.00;;;;;;;8.54;76.50;98015.47;5033357;28;20069;-79
2021/05/15 22:37:50;;;;;;;1.50;0.73;;;;;;;8.55;75.82;98010.88;5031396;28;20680;-78
2021/05/15 22:40:21;;;;;;;1.45;0.80;;;;;;;8.49;76.04;98016.09;5033655;28;20049;-79
2021/05/15 22:42:49;;;;;;;1.70;0.73;;;;;;;8.39;76.08;98012.88;5028902;28;20057;-79
2021/05/15 22:45:17;;;;;;;3.97;0.73;;;;;;;8.42;76.49;98012.47;5014049;28;20057;-79
2021/05/15 22:47:43;;;;;;;3.42;1.00;;;;;;;8.43;76.48;98013.28;5012627;28;20045;-80
2021/05/15 22:50:11;;;;;;;1.08;0.80;;;;;;;8.26;76.62;98015.47;5022189;28;20073;-78
2021/05/15 22:52:37;;;;;;;2.35;0.70;;;;;;;8.25;76.64;98019.22;5045829;28;20050;-80
2021/05/15 22:55:06;;;;;;;1.73;0.80;;;;;;;8.20;76.78;98019.81;5013181;28;20038;-79
2021/05/15 22:57:32;;;;;;;2.35;0.90;;;;;;;8.14;76.88;98012.47;5014170;28;20057;-79
2021/05/15 22:59:59;;;;;;;2.63;0.85;;;;;;;8.15;76.91;98016.88;5027421;28;20057;-79
2021/05/15 23:02:29;;;;;;;2.88;0.75;;;;;;;8.04;77.20;98020.97;5019565;28;20037;-78
2021/05/15 23:04:56;;;;;;;2.92;0.93;;;;;;;8.01;77.16;98024.06;5028656;28;20136;-78
2021/05/15 23:07:22;;;;;;;2.30;0.75;;;;;;;7.83;77.95;98027.25;5023689;28;20050;-79
2021/05/15 23:09:50;;;;;;;1.48;0.60;;;;;;;7.87;77.97;98024.97;5030908;28;20049;-79
2021/05/15 23:12:20;;;;;;;3.42;1.40;;;;;;;7.77;78.13;98015.34;5012325;28;20108;-80
2021/05/15 23:14:48;;;;;;;2.83;0.90;;;;;;;7.75;78.50;98039.06;5013960;28;20486;-79
2021/05/15 23:17:14;;;;;;;3.25;1.10;;;;;;;7.72;78.33;98038.59;5027926;28;20046;-79
2021/05/15 23:19:42;;;;;;;6.55;1.05;;;;;;;7.59;78.88;98025.78;5017064;28;20057;-79
2021/05/15 23:22:09;;;;;;;1.33;1.10;;;;;;;7.68;78.95;98040.00;5013658;28;20053;-79
2021/05/15 23:24:35;;;;;;;3.15;0.75;;;;;;;7.59;79.75;98040.13;5013065;28;20050;-79
2021/05/15 23:27:01;;;;;;;1.83;1.17;;;;;;;7.60;79.63;98036.41;5017321;28;20045;-79
2021/05/15 23:29:28;;;;;;;3.25;1.20;;;;;;;7.59;80.36;98034.72;5027177;28;20108;-80
2021/05/15 23:31:55;;;;;;;5.43;1.30;;;;;;;7.70;80.00;98027.97;5016784;28;20057;-79
2021/05/15 23:34:21;;;;;;;1.60;0.98;;;;;;;7.74;79.85;98034.66;5052506;28;20107;-79
2021/05/15 23:36:48;;;;;;;0.70;0.70;;;;;;;7.74;80.01;98013.03;5051038;28;20065;-78
2021/05/15 23:39:16;;;;;;;3.30;1.35;;;;;;;7.85;79.94;98027.88;5015983;28;20137;-79
2021/05/15 23:41:42;;;;;;;4.70;1.13;;;;;;;7.93;80.02;98035.00;5013259;28;20073;-78
2021/05/15 23:44:09;;;;;;;2.38;0.90;;;;;;;7.89;79.71;98012.94;5019496;28;20493;-79